Time;durP1;ratioP1;P1;durP2;ratioP2;P2;SDS_P1;SDS_P2;PMS_P1;PMS_P2;Temp;Humidity;BMP_temperature;BMP_pressure;BME280_temperature;BME280_humidity;BME280_pressure;Samples;Min_cycle;Max_cycle;Signal;HPM_P1;HPM_P2
2022/12/09 00:00:33;;;;;;;31.92;14.82;;;;;;;-2.09;64.52;100351.22;5032809;28;20112;-55
2022/12/09 00:02:59;;;;;;;32.83;15.82;;;;;;;-2.08;64.93;100366.06;5033275;28;20113;-50
2022/12/09 00:05:25;;;;;;;31.48;15.93;;;;;;;-2.12;65.32;100367.88;5032435;28;20057;-53
2022/12/09 00:07:50;;;;;;;33.50;16.33;;;;;;;-2.08;64.81;100366.91;5032791;28;20140;-52
2022/12/09 00:10:16;;;;;;;32.60;17.17;;;;;;;-2.09;64.53;100370.44;5032999;28;20459;-52
2022/12/09 00:12:41;;;;;;;33.60;15.50;;;;;;;-2.17;65.07;100361.88;5033255;28;20470;-54
2022/12/09 00:15:07;;;;;;;34.97;16.13;;;;;;;-2.13;65.65;100367.94;5032978;28;20363;-52
2022/12/09 00:17:33;;;;;;;33.53;16.55;;;;;;;-2.14;65.41;100359.19;5027839;28;20026;-50
2022/12/09 00:19:59;;;;;;;33.63;16.40;;;;;;;-1.98;64.99;100377.25;5020488;28;20345;-48
2022/12/09 00:22:27;;;;;;;32.78;16.05;;;;;;;-2.00;64.90;100377.28;5033252;28;20029;-55
2022/12/09 00:24:53;;;;;;;31.10;16.48;;;;;;;-2.03;64.73;100379.97;5032483;28;20025;-47
2022/12/09 00:27:18;;;;;;;35.15;15.50;;;;;;;-1.97;64.71;100373.72;5030775;28;20042;-48
2022/12/09 00:29:44;;;;;;;33.63;16.35;;;;;;;-2.04;64.95;100380.84;5031512;28;20061;-48
2022/12/09 00:32:09;;;;;;;34.22;16.40;;;;;;;-2.08;65.17;100371.31;5032947;28;20033;-49
2022/12/09 00:34:34;;;;;;;34.05;16.27;;;;;;;-2.03;64.94;100374.72;5031255;28;20037;-49
2022/12/09 00:37:00;;;;;;;31.67;15.77;;;;;;;-2.00;64.94;100374.66;5031911;28;20040;-54
2022/12/09 00:39:26;;;;;;;35.58;16.17;;;;;;;-1.96;65.08;100370.22;5031788;28;20033;-54
2022/12/09 00:41:51;;;;;;;30.25;15.98;;;;;;;-1.86;64.05;100376.13;5031852;28;20044;-49
2022/12/09 00:44:17;;;;;;;28.95;14.93;;;;;;;-1.97;64.30;100385.06;5031421;28;20034;-51
2022/12/09 00:46:43;;;;;;;31.27;15.05;;;;;;;-2.01;64.75;100372.91;5031249;28;20033;-49
2022/12/09 00:49:09;;;;;;;32.08;15.82;;;;;;;-1.92;63.93;100375.38;5031689;28;20345;-49
2022/12/09 00:51:34;;;;;;;32.13;15.60;;;;;;;-1.92;64.15;100370.13;5031944;28;20116;-51
2022/12/09 00:54:00;;;;;;;32.60;16.08;;;;;;;-2.02;64.70;100373.81;5031550;28;20117;-49
2022/12/09 00:56:27;;;;;;;28.55;14.70;;;;;;;-2.00;64.77;100373.78;5032625;28;20352;-49
2022/12/09 00:58:53;;;;;;;34.72;15.43;;;;;;;-1.97;64.95;100373.72;5032035;28;20112;-49
2022/12/09 01:01:18;;;;;;;31.65;15.68;;;;;;;-1.91;65.00;100371.84;5031396;28;20121;-50
2022/12/09 01:03:43;;;;;;;32.30;14.75;;;;;;;-1.81;64.27;100376.91;5031098;28;20107;-57
2022/12/09 01:06:13;;;;;;;34.17;15.00;;;;;;;-1.83;64.50;100378.69;5031631;28;20045;-55
2022/12/09 01:08:38;;;;;;;29.75;15.00;;;;;;;-1.83;64.24;100381.31;5031009;28;20029;-53
2022/12/09 01:11:13;;;;;;;33.72;15.57;;;;;;;-1.80;64.45;100378.63;5032197;28;20448;-53
2022/12/09 01:13:39;;;;;;;30.20;14.85;;;;;;;-1.87;64.80;100377.88;5032366;28;20029;-54
2022/12/09 01:16:12;;;;;;;27.33;14.63;;;;;;;-1.82;64.67;100376.03;5032047;28;20355;-51
2022/12/09 01:18:38;;;;;;;26.95;14.73;;;;;;;-1.83;64.11;100373.44;5031885;28;20041;-51
2022/12/09 01:21:03;;;;;;;29.20;13.63;;;;;;;-1.79;64.51;100372.47;5032091;28;20037;-50
2022/12/09 01:23:29;;;;;;;27.63;13.60;;;;;;;-1.76;64.17;100380.28;5031483;28;20317;-49
2022/12/09 01:25:54;;;;;;;24.60;13.18;;;;;;;-1.74;64.04;100368.00;5031566;28;20022;-49
2022/12/09 01:28:20;;;;;;;23.05;13.20;;;;;;;-1.81;64.17;100358.53;5032085;28;20033;-51
2022/12/09 01:30:45;;;;;;;25.23;12.98;;;;;;;-1.75;64.22;100368.91;5031698;28;20033;-47
2022/12/09 01:33:11;;;;;;;22.15;12.48;;;;;;;-1.77;63.98;100366.31;5031290;28;20033;-48
2022/12/09 01:35:40;;;;;;;22.58;12.07;;;;;;;-1.74;63.55;100361.00;5031100;28;20049;-50
2022/12/09 01:38:05;;;;;;;23.83;11.90;;;;;;;-1.76;63.52;100362.78;5031920;28;20430;-48
2022/12/09 01:40:31;;;;;;;21.13;11.80;;;;;;;-1.82;64.42;100360.28;5031582;28;20033;-49
2022/12/09 01:42:56;;;;;;;21.60;11.60;;;;;;;-1.84;63.88;100364.69;5031824;28;20456;-49
2022/12/09 01:45:22;;;;;;;17.98;11.35;;;;;;;-1.89;63.88;100364.81;5031113;28;20094;-47
2022/12/09 01:48:00;;;;;;;21.92;12.05;;;;;;;-1.86;64.60;100365.63;5031928;28;20049;-49
2022/12/09 01:50:26;;;;;;;22.65;10.52;;;;;;;-1.90;64.66;100365.72;5031579;28;20041;-48
2022/12/09 01:52:52;;;;;;;20.98;11.18;;;;;;;-2.02;64.17;100351.06;5031356;28;20055;-47
2022/12/09 01:55:18;;;;;;;22.17;11.18;;;;;;;-1.97;64.42;100364.09;5031630;28;20104;-50
2022/12/09 01:57:44;;;;;;;22.08;12.18;;;;;;;-1.99;64.36;100358.00;5031181;28;20104;-49
2022/12/09 02:00:11;;;;;;;22.65;10.80;;;;;;;-1.97;64.26;100361.47;5015724;28;20115;-48
2022/12/09 02:02:39;;;;;;;21.10;10.95;;;;;;;-2.02;64.67;100360.69;5031341;28;20033;-49
2022/12/09 02:05:05;;;;;;;19.23;10.23;;;;;;;-2.32;64.00;100305.31;5031002;28;20041;-50
2022/12/09 02:07:31;;;;;;;22.17;11.02;;;;;;;-1.99;64.29;100363.25;5031534;28;20373;-53
2022/12/09 02:09:56;;;;;;;20.10;11.00;;;;;;;-2.03;64.63;100364.22;5030561;28;20048;-49
2022/12/09 02:13:06;;;;;;;18.05;9.98;;;;;;;-2.04;64.15;100358.13;5031081;28;20033;-50
2022/12/09 02:15:42;;;;;;;19.55;10.10;;;;;;;-2.08;64.41;100366.91;5008658;28;20057;-48
2022/12/09 02:18:16;;;;;;;;;;;;;;;-1.90;64.16;100352.59;5032192;28;20095;-51
2022/12/09 02:21:03;;;;;;;17.23;9.50;;;;;;;-2.01;63.99;100351.91;5030229;28;19913;-52
2022/12/09 02:23:44;;;;;;;19.25;9.95;;;;;;;-2.06;64.12;100353.78;5025599;28;20064;-48
2022/12/09 02:26:22;;;;;;;18.67;10.15;;;;;;;-2.09;64.58;100348.59;5034829;28;20146;-47
2022/12/09 02:29:16;;;;;;;19.00;10.13;;;;;;;-2.05;64.26;100351.13;5034308;28;20431;-49
2022/12/09 02:32:15;;;;;;;19.85;10.18;;;;;;;-2.06;64.61;100359.03;5034310;28;20029;-51
2022/12/09 02:34:51;;;;;;;19.98;10.75;;;;;;;-2.12;64.44;100361.78;5034325;28;20349;-49
2022/12/09 02:37:27;;;;;;;18.30;11.15;;;;;;;-2.13;64.44;100358.28;5034484;28;20517;-54
2022/12/09 02:40:08;;;;;;;22.13;12.05;;;;;;;-2.10;64.29;100357.38;5033750;28;20477;-53
2022/12/09 02:42:37;;;;;;;21.85;11.52;;;;;;;-2.11;64.50;100360.88;5034233;28;20044;-49
2022/12/09 02:45:06;;;;;;;25.02;11.95;;;;;;;-2.09;64.38;100351.22;5034472;28;20029;-53
2022/12/09 02:47:37;;;;;;;25.20;12.27;;;;;;;-2.05;64.72;100358.13;5033192;28;20056;-49
2022/12/09 02:50:08;;;;;;;20.00;11.52;;;;;;;-2.10;64.31;100344.25;5034124;28;20052;-51
2022/12/09 02:52:34;;;;;;;22.75;12.38;;;;;;;-2.05;64.20;100363.38;5034259;28;20033;-49
2022/12/09 02:55:03;;;;;;;22.27;11.82;;;;;;;-2.03;64.64;100358.97;5034230;28;20059;-51
2022/12/09 02:57:30;;;;;;;24.20;12.93;;;;;;;-2.02;64.36;100363.31;5034458;28;20045;-48
2022/12/09 02:59:56;;;;;;;22.77;12.38;;;;;;;-2.03;64.26;100349.34;5034433;28;20068;-50
2022/12/09 03:02:33;;;;;;;23.83;13.57;;;;;;;-1.92;63.97;100351.75;5033755;28;20138;-51
2022/12/09 03:05:19;;;;;;;21.55;12.73;;;;;;;-1.90;63.73;100349.06;5034147;28;20368;-53
2022/12/09 03:08:32;;;;;;;23.75;12.90;;;;;;;-1.96;63.84;100341.34;5019317;28;20165;-50
2022/12/09 03:11:05;;;;;;;22.50;12.52;;;;;;;-2.02;64.54;100344.94;5031696;28;20045;-48
2022/12/09 03:13:40;;;;;;;25.27;12.80;;;;;;;-1.98;64.21;100336.09;5013169;28;20045;-46
2022/12/09 03:16:14;;;;;;;23.93;12.73;;;;;;;-1.98;64.49;100327.38;5034258;28;20436;-50
2022/12/09 03:18:45;;;;;;;28.30;14.17;;;;;;;-2.08;64.06;100327.56;5033133;28;20266;-47
2022/12/09 03:21:15;;;;;;;23.20;12.13;;;;;;;-2.07;64.01;100316.16;5033323;28;20119;-48
2022/12/09 03:23:44;;;;;;;22.80;12.30;;;;;;;-2.04;64.30;100318.75;5033866;28;20379;-50
2022/12/09 03:26:12;;;;;;;23.90;13.77;;;;;;;-1.98;63.96;100320.38;5033708;28;20478;-52
2022/12/09 03:28:44;;;;;;;28.90;14.05;;;;;;;-2.07;64.36;100324.03;5033628;28;20101;-55
2022/12/09 03:31:15;;;;;;;26.05;14.30;;;;;;;-2.05;64.36;100332.78;5033790;28;20029;-48
2022/12/09 03:33:43;;;;;;;27.92;13.20;;;;;;;-1.96;64.15;100328.22;5033511;28;20033;-49
2022/12/09 03:36:12;;;;;;;27.25;13.65;;;;;;;-2.04;63.75;100331.00;5033350;28;20056;-49
2022/12/09 03:38:39;;;;;;;26.08;13.98;;;;;;;-2.07;63.75;100331.06;5032730;28;20048;-49
2022/12/09 03:41:16;;;;;;;28.65;14.07;;;;;;;-2.10;64.52;100325.88;5033496;28;20117;-49
2022/12/09 03:43:48;;;;;;;26.35;14.30;;;;;;;-2.12;64.94;100325.91;5034058;28;20034;-48
2022/12/09 03:46:13;;;;;;;31.08;13.88;;;;;;;-2.11;64.93;100330.25;5033073;28;20046;-50
2022/12/09 03:48:39;;;;;;;27.80;13.80;;;;;;;-2.06;64.10;100328.38;5032844;28;20464;-51
2022/12/09 03:51:12;;;;;;;29.20;15.27;;;;;;;-2.07;64.81;100320.56;5033520;28;20100;-54
2022/12/09 03:53:48;;;;;;;27.67;14.57;;;;;;;-2.00;64.50;100322.16;5033456;28;20025;-52
2022/12/09 03:56:16;;;;;;;;;;;;;;;-1.78;63.73;100322.59;5033396;28;20098;-49
2022/12/09 03:58:45;;;;;;;26.55;13.45;;;;;;;-1.96;64.52;100326.44;5031983;28;20259;-49
2022/12/09 04:01:11;;;;;;;31.35;14.85;;;;;;;-1.95;64.41;100317.66;5032549;28;20037;-51
2022/12/09 04:03:37;;;;;;;36.53;16.17;;;;;;;-1.98;64.22;100312.50;5033526;28;20099;-52
2022/12/09 04:06:02;;;;;;;35.17;17.42;;;;;;;-2.00;64.79;100313.44;5032828;28;20038;-53
2022/12/09 04:08:28;;;;;;;35.88;17.55;;;;;;;-1.99;64.96;100317.78;5032211;28;20040;-49
2022/12/09 04:10:53;;;;;;;37.47;17.33;;;;;;;-1.97;64.69;100316.00;5033157;28;20029;-51
2022/12/09 04:13:18;;;;;;;38.00;17.30;;;;;;;-1.94;64.60;100324.66;5032468;28;20403;-51
2022/12/09 04:15:44;;;;;;;46.35;17.95;;;;;;;-1.96;65.14;100318.56;5032668;28;20168;-50
2022/12/09 04:18:09;;;;;;;49.25;19.42;;;;;;;-2.04;65.80;100315.25;5031975;28;20037;-52
2022/12/09 04:20:35;;;;;;;43.72;19.20;;;;;;;-2.08;65.37;100321.47;5032917;28;20033;-48
2022/12/09 04:23:00;;;;;;;48.95;19.60;;;;;;;-2.06;65.80;100314.44;5032354;28;20163;-49
2022/12/09 04:25:26;;;;;;;45.90;19.48;;;;;;;-2.07;66.31;100321.41;5032188;28;20029;-48
2022/12/09 04:27:51;;;;;;;48.38;21.10;;;;;;;-2.02;66.01;100322.22;5032259;28;20033;-51
2022/12/09 04:30:16;;;;;;;46.65;19.77;;;;;;;-2.19;66.37;100288.44;5031926;28;20033;-52
2022/12/09 04:32:42;;;;;;;47.78;20.38;;;;;;;-2.07;65.84;100320.56;5032253;28;20038;-55
2022/12/09 04:35:08;;;;;;;48.88;19.92;;;;;;;-2.13;66.89;100307.59;5032260;28;20051;-51
2022/12/09 04:37:33;;;;;;;48.85;22.10;;;;;;;-2.10;66.27;100310.13;5032521;28;20048;-53
2022/12/09 04:39:59;;;;;;;56.72;22.65;;;;;;;-2.09;65.92;100306.63;5032068;28;20041;-52
2022/12/09 04:42:24;;;;;;;54.10;21.95;;;;;;;-2.15;67.03;100312.00;5031065;28;20033;-50
2022/12/09 04:44:50;;;;;;;54.03;22.70;;;;;;;-2.17;66.40;100315.53;5030685;28;20029;-52
2022/12/09 04:47:15;;;;;;;54.22;21.75;;;;;;;-2.22;66.89;100314.72;5032111;28;20045;-49
2022/12/09 04:49:40;;;;;;;54.33;22.77;;;;;;;-2.37;67.29;100280.94;5031644;28;20087;-50
2022/12/09 04:52:06;;;;;;;49.28;21.88;;;;;;;-2.19;67.92;100311.19;5031986;28;20060;-53
2022/12/09 04:54:32;;;;;;;52.05;22.17;;;;;;;-2.12;67.53;100311.94;5032071;28;20364;-50
2022/12/09 04:56:57;;;;;;;55.55;22.13;;;;;;;-2.10;67.51;100310.13;5031984;28;20048;-48
2022/12/09 04:59:23;;;;;;;57.50;23.42;;;;;;;-2.09;67.09;100307.47;5031710;28;20029;-51
2022/12/09 05:01:48;;;;;;;56.63;22.80;;;;;;;-2.07;67.31;100307.44;5032442;28;20039;-52
2022/12/09 05:04:14;;;;;;;62.00;24.00;;;;;;;-2.28;67.37;100266.78;5031975;28;20110;-53
2022/12/09 05:06:40;;;;;;;58.55;23.77;;;;;;;-2.08;67.38;100297.84;5031322;28;20139;-49
2022/12/09 05:09:09;;;;;;;53.78;22.10;;;;;;;-2.00;67.23;100293.28;5031677;28;20037;-49
2022/12/09 05:11:35;;;;;;;54.40;23.17;;;;;;;-2.23;66.75;100260.53;5032449;28;20108;-49
2022/12/09 05:14:00;;;;;;;58.03;23.95;;;;;;;-2.09;67.70;100302.22;5031408;28;20125;-51
2022/12/09 05:16:26;;;;;;;57.08;22.80;;;;;;;-2.10;68.13;100294.41;5031560;28;20041;-50
2022/12/09 05:18:51;;;;;;;62.13;22.92;;;;;;;-2.08;68.27;100303.09;5031694;28;20033;-49
2022/12/09 05:21:19;;;;;;;53.42;23.90;;;;;;;-2.05;68.71;100300.41;5031644;28;20088;-50
2022/12/09 05:23:44;;;;;;;47.85;21.23;;;;;;;-2.02;68.26;100308.22;5031595;28;20117;-48
2022/12/09 05:26:12;;;;;;;48.70;21.15;;;;;;;-2.20;67.97;100272.72;5031847;28;20164;-53
2022/12/09 05:28:38;;;;;;;48.75;20.33;;;;;;;-2.04;67.70;100305.63;5032301;28;20040;-51
2022/12/09 05:31:06;;;;;;;53.47;22.20;;;;;;;-2.11;68.00;100298.75;5032087;28;20029;-53
2022/12/09 05:33:32;;;;;;;54.05;21.63;;;;;;;-2.06;67.57;100312.66;5031178;28;20033;-53
2022/12/09 05:35:58;;;;;;;56.58;23.05;;;;;;;-2.14;67.87;100311.94;5031687;28;20467;-50
2022/12/09 05:38:24;;;;;;;49.25;22.00;;;;;;;-2.17;68.13;100307.66;5031999;28;20110;-53
2022/12/09 05:40:50;;;;;;;55.38;22.77;;;;;;;-2.18;68.38;100298.03;5031507;28;20025;-49
2022/12/09 05:43:16;;;;;;;56.40;23.33;;;;;;;-2.19;69.12;100290.19;5030628;28;20083;-51
2022/12/09 05:45:42;;;;;;;54.42;22.60;;;;;;;-2.13;68.87;100292.69;5031639;28;20104;-49
2022/12/09 05:48:08;;;;;;;55.63;22.65;;;;;;;-2.11;68.19;100284.81;5032621;28;20124;-48
2022/12/09 05:50:33;;;;;;;55.88;24.23;;;;;;;-2.08;68.70;100295.22;5030903;28;20129;-51
2022/12/09 05:52:59;;;;;;;49.97;20.08;;;;;;;-2.02;68.23;100285.47;5031732;28;20079;-55
2022/12/09 05:55:24;;;;;;;56.80;22.77;;;;;;;-2.16;68.34;100261.28;5031636;28;20068;-49
2022/12/09 05:57:50;;;;;;;58.67;23.80;;;;;;;-2.04;69.00;100289.88;5035280;28;20037;-56
2022/12/09 06:00:15;;;;;;;56.90;23.55;;;;;;;-1.99;68.74;100281.91;5035306;28;20095;-53
2022/12/09 06:02:41;;;;;;;55.47;23.48;;;;;;;-1.95;68.76;100278.31;5035628;28;20364;-52
2022/12/09 06:05:07;;;;;;;53.83;23.40;;;;;;;-1.96;68.78;100281.81;5034914;28;20522;-50
2022/12/09 06:07:33;;;;;;;57.95;23.80;;;;;;;-1.83;68.32;100282.44;5068016;28;20048;-49
2022/12/09 06:09:59;;;;;;;57.97;22.98;;;;;;;-1.90;68.03;100270.34;5033609;28;20441;-52
2022/12/09 06:12:24;;;;;;;57.97;25.45;;;;;;;-1.82;67.90;100281.53;5034473;28;20104;-64
2022/12/09 06:14:50;;;;;;;56.47;24.15;;;;;;;-1.84;68.67;100285.09;5034104;28;20421;-62
2022/12/09 06:17:15;;;;;;;59.10;24.88;;;;;;;-1.82;68.26;100278.06;5034634;28;20065;-50
2022/12/09 06:19:41;;;;;;;52.42;22.95;;;;;;;-1.91;67.75;100242.38;5035129;28;20111;-51
2022/12/09 06:22:06;;;;;;;53.17;24.00;;;;;;;-1.77;67.82;100269.19;5034474;28;20030;-52
2022/12/09 06:24:33;;;;;;;60.75;25.17;;;;;;;-1.76;67.51;100272.66;5034446;28;20021;-57
2022/12/09 06:26:58;;;;;;;50.38;23.33;;;;;;;-1.75;68.15;100274.38;5034482;28;20060;-53
2022/12/09 06:29:23;;;;;;;52.58;23.50;;;;;;;-1.68;68.08;100273.38;5034286;28;20084;-53
2022/12/09 06:31:49;;;;;;;55.88;23.60;;;;;;;-1.67;67.58;100259.34;5033817;28;20524;-59
2022/12/09 06:34:14;;;;;;;51.80;23.25;;;;;;;-1.63;67.76;100266.25;5034479;28;20088;-54
2022/12/09 06:36:40;;;;;;;55.75;23.58;;;;;;;-1.61;67.44;100267.06;5034561;28;20062;-56
2022/12/09 06:39:05;;;;;;;55.53;25.17;;;;;;;-1.55;67.67;100267.81;5034453;28;20033;-57
2022/12/09 06:41:31;;;;;;;47.70;24.02;;;;;;;-1.51;67.58;100270.34;5034203;28;20029;-56
2022/12/09 06:43:57;;;;;;;50.97;24.35;;;;;;;-1.48;67.14;100257.13;5033831;28;20063;-55
2022/12/09 06:46:23;;;;;;;51.67;24.25;;;;;;;-1.53;67.33;100263.41;5033514;28;20092;-53
2022/12/09 06:48:50;;;;;;;51.72;24.05;;;;;;;-1.50;66.87;100256.31;5033505;28;20373;-53
2022/12/09 06:51:16;;;;;;;53.38;23.58;;;;;;;-1.46;66.57;100250.09;5034753;28;20069;-57
2022/12/09 06:53:42;;;;;;;52.65;24.33;;;;;;;-1.52;66.94;100246.72;5034075;28;20025;-55
2022/12/09 06:56:09;;;;;;;52.47;23.60;;;;;;;-1.47;66.62;100248.34;5034072;28;20041;-56
2022/12/09 06:58:35;;;;;;;53.42;24.60;;;;;;;-1.47;66.54;100252.72;5034574;28;20060;-58
2022/12/09 07:01:12;;;;;;;48.08;23.55;;;;;;;-1.40;66.71;100251.72;5033806;28;20404;-57
2022/12/09 07:03:38;;;;;;;54.42;26.38;;;;;;;-1.42;65.97;100250.88;5033994;28;20033;-53
2022/12/09 07:06:04;;;;;;;58.67;26.08;;;;;;;-1.45;66.42;100240.44;5033310;28;20033;-55
2022/12/09 07:08:30;;;;;;;52.10;25.17;;;;;;;-1.44;66.79;100247.44;5033326;28;20029;-53
2022/12/09 07:10:55;;;;;;;51.65;25.65;;;;;;;-1.43;66.38;100243.91;5033577;28;20368;-53
2022/12/09 07:13:20;;;;;;;52.88;26.48;;;;;;;-1.35;66.10;100252.44;5033106;28;20095;-55
2022/12/09 07:15:51;;;;;;;54.20;26.42;;;;;;;-1.36;66.03;100240.22;5030685;28;20052;-52
2022/12/09 07:18:18;;;;;;;54.45;28.05;;;;;;;-1.35;66.21;100255.06;5028940;28;20029;-55
2022/12/09 07:20:43;;;;;;;49.92;26.10;;;;;;;-1.41;65.75;100252.59;5029410;28;20033;-57
2022/12/09 07:23:09;;;;;;;55.63;28.23;;;;;;;-1.42;66.42;100258.75;5029408;28;20033;-53
2022/12/09 07:25:34;;;;;;;55.60;28.08;;;;;;;-1.42;66.18;100256.13;5033099;28;20241;-62
2022/12/09 07:28:00;;;;;;;55.78;27.80;;;;;;;-1.39;66.04;100245.56;5032247;28;20128;-57
2022/12/09 07:30:25;;;;;;;56.88;27.27;;;;;;;-1.35;66.37;100257.72;5029678;28;20029;-56
2022/12/09 07:32:50;;;;;;;59.40;28.23;;;;;;;-1.36;65.62;100250.72;5029315;28;20472;-56
2022/12/09 07:35:16;;;;;;;53.22;28.27;;;;;;;-1.26;65.25;100253.13;5033083;28;20116;-60
2022/12/09 07:37:41;;;;;;;58.28;28.08;;;;;;;-1.32;65.98;100264.66;5033310;28;20084;-55
2022/12/09 07:40:07;;;;;;;54.83;26.65;;;;;;;-1.36;65.91;100250.72;5032917;28;20060;-58
2022/12/09 07:42:32;;;;;;;47.42;26.20;;;;;;;-1.43;66.10;100259.66;5033022;28;20352;-55
2022/12/09 07:44:58;;;;;;;51.13;25.48;;;;;;;-1.46;65.53;100250.09;5033187;28;20045;-59
2022/12/09 07:47:23;;;;;;;51.17;24.83;;;;;;;-1.37;65.25;100250.75;5031330;28;20065;-60
2022/12/09 07:49:49;;;;;;;51.15;25.10;;;;;;;-1.59;64.69;100207.50;5032154;28;20037;-59
2022/12/09 07:52:14;;;;;;;51.20;23.30;;;;;;;-1.37;64.99;100250.75;5032927;28;20029;-66
2022/12/09 07:54:40;;;;;;;48.40;24.15;;;;;;;-1.42;64.66;100229.88;5033192;28;20025;-56
2022/12/09 07:57:05;;;;;;;49.90;24.30;;;;;;;-1.48;64.86;100236.13;5032370;28;20045;-58
2022/12/09 07:59:31;;;;;;;46.55;24.45;;;;;;;-1.50;65.42;100237.06;5031574;28;20032;-55
2022/12/09 08:01:56;;;;;;;51.35;24.60;;;;;;;-1.41;65.47;100241.22;5031119;28;20029;-55
2022/12/09 08:04:22;;;;;;;45.30;23.02;;;;;;;-1.46;65.57;100238.69;5031273;28;20037;-56
2022/12/09 08:06:47;;;;;;;44.92;22.45;;;;;;;-1.48;65.20;100223.00;5032684;28;20033;-53
2022/12/09 08:09:13;;;;;;;47.88;24.70;;;;;;;-1.41;65.49;100222.84;5032891;28;20061;-58
2022/12/09 08:11:39;;;;;;;47.78;24.60;;;;;;;-1.34;64.86;100217.41;5032086;28;20372;-54
2022/12/09 08:14:07;;;;;;;51.50;24.95;;;;;;;-1.63;65.07;100191.84;5032756;28;20044;-53
2022/12/09 08:16:33;;;;;;;47.50;24.70;;;;;;;-1.45;65.65;100230.78;5032068;28;20472;-54
2022/12/09 08:18:58;;;;;;;47.45;23.58;;;;;;;-1.39;65.43;100223.66;5032273;28;20121;-57
2022/12/09 08:21:27;;;;;;;51.22;24.63;;;;;;;-1.36;64.99;100219.22;5032099;28;20057;-56
2022/12/09 08:23:54;;;;;;;49.58;24.13;;;;;;;-1.41;64.76;100202.72;5032325;28;20040;-54
2022/12/09 08:26:22;;;;;;;55.08;25.77;;;;;;;-1.39;65.21;100200.91;5032346;28;20043;-57
2022/12/09 08:28:49;;;;;;;53.58;25.58;;;;;;;-1.35;65.77;100212.16;5032052;28;20029;-55
2022/12/09 08:31:19;;;;;;;50.42;24.35;;;;;;;-1.23;65.03;100205.75;5032391;28;20043;-56
2022/12/09 08:33:45;;;;;;;44.60;21.88;;;;;;;-1.31;64.92;100191.06;5031236;28;20030;-56
2022/12/09 08:36:30;;;;;;;45.60;24.60;;;;;;;-1.27;65.28;100197.09;5032269;28;20095;-54
2022/12/09 08:39:00;;;;;;;;;;;;;;;-1.05;64.16;100181.63;5032342;28;20346;-60
2022/12/09 08:41:34;;;;;;;44.22;23.33;;;;;;;-1.21;64.43;100180.28;5031611;28;19960;-58
2022/12/09 08:44:11;;;;;;;42.42;21.88;;;;;;;-1.15;64.54;100172.28;5031254;28;20037;-59
2022/12/09 08:46:40;;;;;;;48.08;22.70;;;;;;;-1.24;64.71;100175.13;5031232;28;20451;-57
2022/12/09 08:49:06;;;;;;;46.45;23.27;;;;;;;-1.39;64.71;100165.88;5030558;28;20386;-60
2022/12/09 08:51:31;;;;;;;44.92;23.90;;;;;;;-1.39;64.83;100147.50;5031904;28;20136;-59
2022/12/09 08:53:58;;;;;;;43.67;23.05;;;;;;;-1.55;65.19;100128.66;5032020;28;20040;-56
2022/12/09 08:56:24;;;;;;;47.60;23.98;;;;;;;-1.34;65.00;100159.59;5028832;28;20055;-57
2022/12/09 08:58:50;;;;;;;49.47;24.90;;;;;;;-1.43;66.19;100153.72;5031011;28;20030;-65
2022/12/09 09:01:19;;;;;;;48.38;23.85;;;;;;;-1.36;65.94;100148.28;5031509;28;20029;-54
2022/12/09 09:03:45;;;;;;;46.53;23.35;;;;;;;-1.32;65.60;100152.56;5031548;28;20044;-57
2022/12/09 09:06:11;;;;;;;44.10;22.35;;;;;;;-1.24;65.91;100143.59;5030949;28;20068;-57
2022/12/09 09:08:38;;;;;;;44.90;22.70;;;;;;;-1.20;66.02;100143.47;5031836;28;20337;-54
2022/12/09 09:11:11;;;;;;;30.23;14.50;;;;;;;-1.07;65.12;100128.25;5030608;28;20363;-56
2022/12/09 09:13:38;;;;;;;49.33;23.92;;;;;;;-1.05;64.47;100136.09;5028572;28;20716;-52
2022/12/09 09:16:04;;;;;;;38.17;20.17;;;;;;;-1.21;64.91;100133.00;5030883;28;20048;-64
2022/12/09 09:18:29;;;;;;;47.33;20.60;;;;;;;-1.18;64.85;100148.72;5031501;28;20030;-64
2022/12/09 09:20:57;;;;;;;38.22;20.85;;;;;;;-1.45;66.16;100138.00;5063467;28;20064;-64
2022/12/09 09:23:24;;;;;;;45.88;22.83;;;;;;;-1.38;65.92;100152.72;5031488;28;20026;-63
2022/12/09 09:25:50;;;;;;;44.20;21.27;;;;;;;-1.42;66.21;100145.81;5030081;28;20041;-63
2022/12/09 09:28:15;;;;;;;41.47;20.45;;;;;;;-1.35;65.79;100142.13;5031799;28;20059;-63
2022/12/09 09:30:41;;;;;;;46.35;21.67;;;;;;;-1.32;66.07;100131.53;5032648;28;20316;-64
2022/12/09 09:33:07;;;;;;;47.20;22.73;;;;;;;-1.24;65.31;100118.19;5035180;28;20420;-63
2022/12/09 09:35:33;;;;;;;44.80;22.02;;;;;;;-1.30;65.72;100126.25;5035179;28;20080;-63
2022/12/09 09:37:58;;;;;;;42.55;21.05;;;;;;;-1.23;65.84;100126.94;5036051;28;20029;-62
2022/12/09 09:40:26;;;;;;;45.50;22.02;;;;;;;-1.14;65.65;100107.44;5034702;28;20046;-64
2022/12/09 09:42:54;;;;;;;43.58;22.02;;;;;;;-1.08;64.82;100112.53;5034504;28;20064;-64
2022/12/09 09:45:22;;;;;;;41.15;19.33;;;;;;;-0.97;64.57;100109.56;5033963;28;20051;-63
2022/12/09 09:47:58;;;;;;;42.85;22.25;;;;;;;-0.96;64.78;100108.69;5034392;28;20056;-64
2022/12/09 09:50:36;;;;;;;40.45;21.35;;;;;;;-0.98;64.46;100108.72;5035029;28;20459;-63
2022/12/09 09:53:14;;;;;;;39.28;20.08;;;;;;;-0.99;64.48;100107.00;5035344;28;20065;-64
2022/12/09 09:55:48;;;;;;;38.80;20.13;;;;;;;-0.95;64.44;100102.53;5035258;28;20021;-64
2022/12/09 09:58:23;;;;;;;38.70;19.70;;;;;;;-1.19;63.82;100065.53;5035722;28;20404;-64
2022/12/09 10:00:48;;;;;;;36.45;19.35;;;;;;;-1.09;63.84;100095.88;5018293;28;20506;-63
2022/12/09 10:03:46;;;;;;;42.63;20.55;;;;;;;-1.05;64.68;100094.03;5034114;28;20037;-62
2022/12/09 10:06:35;;;;;;;37.25;19.95;;;;;;;-1.13;64.63;100078.50;5034893;28;20069;-63
2022/12/09 10:09:10;;;;;;;39.30;20.02;;;;;;;-1.09;64.46;100081.88;5029551;28;20049;-65
2022/12/09 10:11:50;;;;;;;45.83;20.42;;;;;;;-0.99;64.17;100079.84;5033537;28;20360;-55
2022/12/09 10:14:18;;;;;;;40.60;19.38;;;;;;;-1.26;64.45;100049.06;5032287;28;20049;-57
2022/12/09 10:16:50;;;;;;;34.95;18.88;;;;;;;-0.98;64.04;100077.19;5048743;28;20358;-58
2022/12/09 10:19:30;;;;;;;40.53;20.45;;;;;;;-0.93;64.27;100077.91;5035282;28;20053;-58
2022/12/09 10:21:57;;;;;;;38.58;19.05;;;;;;;-0.94;63.16;100060.41;5034552;28;20123;-57
2022/12/09 10:24:31;;;;;;;46.17;19.38;;;;;;;-0.81;63.29;100065.31;5034050;28;20364;-59
2022/12/09 10:27:11;;;;;;;34.60;19.02;;;;;;;-0.85;63.17;100063.66;5034860;28;20357;-59
2022/12/09 10:29:51;;;;;;;37.17;19.52;;;;;;;-0.85;63.36;100064.53;5034124;28;20022;-56
2022/12/09 10:32:19;;;;;;;40.20;19.35;;;;;;;-0.96;63.60;100058.75;5034100;28;20022;-56
2022/12/09 10:34:46;;;;;;;41.35;20.58;;;;;;;-1.02;63.76;100050.13;5034348;28;20037;-53
2022/12/09 10:37:26;;;;;;;38.97;20.85;;;;;;;-0.94;64.42;100052.53;5032415;28;20033;-58
2022/12/09 10:39:59;;;;;;;38.50;20.52;;;;;;;-1.11;64.13;100013.63;5033960;28;20478;-57
2022/12/09 10:45:10;;;;;;;33.80;17.27;;;;;;;-0.81;61.70;100021.47;5034116;28;20344;-55
2022/12/09 10:47:36;;;;;;;36.33;19.38;;;;;;;-0.80;62.81;100061.78;5033591;28;20064;-56
2022/12/09 10:50:03;;;;;;;37.35;18.90;;;;;;;-0.84;63.54;100066.28;5033926;28;20444;-56
2022/12/09 10:52:41;;;;;;;33.83;18.65;;;;;;;-0.80;62.51;100046.00;5033578;28;20060;-54
2022/12/09 10:55:26;;;;;;;34.90;18.67;;;;;;;-0.90;63.30;100056.78;5033859;28;20041;-54
2022/12/09 10:58:15;;;;;;;40.97;19.80;;;;;;;-0.98;62.43;100045.66;5029428;28;20025;-62
2022/12/09 11:00:40;;;;;;;39.55;19.45;;;;;;;-1.07;62.42;100051.19;5033223;28;20121;-54
2022/12/09 11:03:23;;;;;;;32.05;15.07;;;;;;;-1.12;62.46;100027.66;5033414;28;20083;-52
2022/12/09 11:05:56;;;;;;;32.97;17.13;;;;;;;-1.12;62.74;100038.16;5033561;28;20026;-57
2022/12/09 11:08:21;;;;;;;33.42;17.65;;;;;;;-1.37;63.12;100033.63;5033621;28;20033;-54
2022/12/09 11:10:48;;;;;;;31.38;16.25;;;;;;;-1.40;62.97;100033.69;5032557;28;20356;-55
2022/12/09 11:13:17;;;;;;;26.88;14.00;;;;;;;-1.31;63.01;100035.22;5033993;28;20030;-56
2022/12/09 11:15:48;;;;;;;31.85;16.40;;;;;;;-1.35;62.25;100033.56;5033923;28;20045;-51
2022/12/09 11:18:26;;;;;;;32.22;17.08;;;;;;;-1.47;63.11;100021.63;5032704;28;20174;-54